Time;durP1;ratioP1;P1;durP2;ratioP2;P2;SDS_P1;SDS_P2;PMS_P1;PMS_P2;Temp;Humidity;BMP_temperature;BMP_pressure;BME280_temperature;BME280_humidity;BME280_pressure;Samples;Min_cycle;Max_cycle;Signal;HPM_P1;HPM_P2
2023/04/08 00:00:49;;;;;;;;;;;5.30;99.90;;;;;;5094246;28;19920;-64
2023/04/08 00:03:15;;;;;;;;;;;5.20;99.90;;;;;;5060344;28;19974;-63
2023/04/08 00:05:41;;;;;;;;;;;5.20;99.90;;;;;;5076226;28;19928;-63
2023/04/08 00:08:06;;;;;;;;;;;5.20;99.90;;;;;;5076556;28;19925;-63
2023/04/08 00:10:32;;;;;;;;;;;5.20;99.90;;;;;;5076211;28;20287;-67
2023/04/08 00:12:59;;;;;;;;;;;5.40;99.90;;;;;;5076672;28;19924;-64
2023/04/08 00:15:25;;;;;;;;;;;5.10;99.90;;;;;;5094444;28;19924;-64
2023/04/08 00:17:53;;;;;;;;;;;5.10;99.90;;;;;;5076163;28;20043;-64
2023/04/08 00:20:19;;;;;;;;;;;5.10;99.90;;;;;;5059761;28;19924;-64
2023/04/08 00:22:45;;;;;;;;;;;5.00;99.90;;;;;;5094143;28;19924;-64
2023/04/08 00:25:11;;;;;;;;;;;5.00;99.90;;;;;;5093963;28;20455;-64
2023/04/08 00:27:37;;;;;;;;;;;5.00;99.90;;;;;;5076043;28;19986;-64
2023/04/08 00:30:02;;;;;;;;;;;5.00;99.90;;;;;;5094269;28;19924;-65
2023/04/08 00:32:28;;;;;;;;;;;4.90;99.90;;;;;;5076166;28;19924;-64
2023/04/08 00:34:54;;;;;;;;;;;4.90;99.90;;;;;;5076085;28;20148;-64
2023/04/08 00:37:20;;;;;;;;;;;4.90;99.90;;;;;;5059578;28;19924;-63
2023/04/08 00:39:45;;;;;;;;;;;4.90;99.90;;;;;;5074682;28;20326;-64
2023/04/08 00:42:11;;;;;;;;;;;4.80;99.90;;;;;;5093433;28;19928;-64
2023/04/08 00:44:37;;;;;;;;;;;4.70;99.90;;;;;;5075619;28;19981;-67
2023/04/08 00:47:03;;;;;;;;;;;4.80;99.90;;;;;;5075855;28;19924;-65
2023/04/08 00:49:30;;;;;;;;;;;4.80;99.90;;;;;;5093321;28;19924;-64
2023/04/08 00:51:55;;;;;;;;;;;4.70;99.90;;;;;;5075685;28;19931;-64
2023/04/08 00:54:21;;;;;;;;;;;4.70;99.90;;;;;;5075814;28;19927;-64
2023/04/08 00:56:46;;;;;;;;;;;4.70;99.90;;;;;;5093444;28;20388;-64
2023/04/08 00:59:12;;;;;;;;;;;4.70;99.90;;;;;;5075727;28;19970;-64
2023/04/08 01:01:43;;;;;;;;;;;4.70;99.90;;;;;;5093332;28;20376;-68
2023/04/08 01:04:15;;;;;;;;;;;4.70;99.90;;;;;;5075724;28;20010;-64
2023/04/08 01:06:46;;;;;;;;;;;4.60;99.90;;;;;;5093177;28;20289;-62
2023/04/08 01:09:12;;;;;;;;;;;4.60;99.90;;;;;;5075546;28;19924;-63
2023/04/08 01:11:42;;;;;;;;;;;4.60;99.90;;;;;;5075484;28;19946;-64
2023/04/08 01:14:09;;;;;;;;;;;4.60;99.90;;;;;;5075382;28;19928;-65
2023/04/08 01:16:36;;;;;;;;;;;4.50;99.90;;;;;;5058831;28;19924;-65
2023/04/08 01:19:03;;;;;;;;;;;4.50;99.90;;;;;;5074583;28;19924;-63
2023/04/08 01:21:28;;;;;;;;;;;4.40;99.90;;;;;;5093260;28;19971;-64
2023/04/08 01:24:08;;;;;;;;;;;4.50;99.90;;;;;;5041787;28;20012;-65
2023/04/08 01:26:34;;;;;;;;;;;4.40;99.90;;;;;;5093201;28;19924;-65
2023/04/08 01:29:00;;;;;;;;;;;4.50;99.90;;;;;;5092634;28;19924;-65
2023/04/08 01:31:26;;;;;;;;;;;4.50;99.90;;;;;;5075296;28;19923;-64
2023/04/08 01:33:52;;;;;;;;;;;4.50;99.90;;;;;;5074672;28;20550;-66
2023/04/08 01:36:19;;;;;;;;;;;4.40;99.90;;;;;;5074997;28;20007;-64
2023/04/08 01:38:45;;;;;;;;;;;4.40;99.90;;;;;;5074253;28;19924;-67
2023/04/08 01:41:11;;;;;;;;;;;4.30;99.90;;;;;;5092669;28;20049;-65
2023/04/08 01:43:38;;;;;;;;;;;4.30;99.90;;;;;;5092640;28;20359;-64
2023/04/08 01:46:05;;;;;;;;;;;4.30;99.90;;;;;;5092285;28;19945;-63
2023/04/08 01:48:31;;;;;;;;;;;4.30;99.90;;;;;;5074516;28;19924;-63
2023/04/08 01:50:57;;;;;;;;;;;4.20;99.90;;;;;;5074363;28;19951;-63
2023/04/08 01:53:23;;;;;;;;;;;4.20;99.90;;;;;;5092570;28;20293;-63
2023/04/08 01:55:54;;;;;;;;;;;4.20;99.90;;;;;;5091974;28;19924;-63
2023/04/08 01:58:20;;;;;;;;;;;4.20;99.90;;;;;;5074751;28;19924;-63
2023/04/08 02:00:46;;;;;;;;;;;4.10;99.90;;;;;;5073161;28;19931;-66
2023/04/08 02:03:13;;;;;;;;;;;4.10;99.90;;;;;;5074712;28;19924;-64
2023/04/08 02:05:39;;;;;;;;;;;4.10;99.90;;;;;;5074459;28;19947;-63
2023/04/08 02:08:05;;;;;;;;;;;4.00;99.90;;;;;;5057362;28;20377;-65
2023/04/08 02:10:30;;;;;;;;;;;4.00;99.90;;;;;;5092296;28;19924;-64
2023/04/08 02:12:56;;;;;;;;;;;4.10;99.90;;;;;;5057070;28;19924;-64
2023/04/08 02:15:22;;;;;;;;;;;4.00;99.90;;;;;;5057931;28;19975;-64
2023/04/08 02:18:02;;;;;;;;;;;4.00;99.90;;;;;;5092134;28;19977;-66
2023/04/08 02:20:42;;;;;;;;;;;4.10;99.90;;;;;;5074115;28;19993;-63
2023/04/08 02:23:13;;;;;;;;;;;4.10;99.90;;;;;;5056713;28;19985;-65
2023/04/08 02:25:40;;;;;;;;;;;4.00;99.90;;;;;;5074043;28;19931;-64
2023/04/08 02:28:08;;;;;;;;;;;4.00;99.90;;;;;;5073874;28;20018;-64
2023/04/08 02:30:34;;;;;;;;;;;3.90;99.90;;;;;;5074255;28;19924;-64
2023/04/08 02:33:02;;;;;;;;;;;4.00;99.90;;;;;;5056823;28;19931;-64
2023/04/08 02:35:27;;;;;;;;;;;4.00;99.90;;;;;;5057603;28;19924;-64
2023/04/08 02:37:53;;;;;;;;;;;3.90;99.90;;;;;;5073505;28;20489;-64
2023/04/08 02:40:26;;;;;;;;;;;3.90;99.90;;;;;;5091260;28;19924;-64
2023/04/08 02:42:51;;;;;;;;;;;3.90;99.90;;;;;;5056567;28;19928;-68
2023/04/08 02:45:17;;;;;;;;;;;3.90;99.90;;;;;;5091905;28;19931;-63
2023/04/08 02:47:43;;;;;;;;;;;3.80;99.90;;;;;;5073870;28;20393;-63
2023/04/08 02:50:09;;;;;;;;;;;3.70;99.90;;;;;;5091365;28;19932;-64
2023/04/08 02:52:35;;;;;;;;;;;3.80;99.90;;;;;;5073928;28;20325;-63
2023/04/08 02:55:00;;;;;;;;;;;3.70;99.90;;;;;;5091416;28;20382;-64
2023/04/08 02:57:26;;;;;;;;;;;3.70;99.90;;;;;;5073603;28;19924;-63
2023/04/08 02:59:52;;;;;;;;;;;3.70;99.90;;;;;;5056717;28;20065;-63
2023/04/08 03:02:17;;;;;;;;;;;3.70;99.90;;;;;;5057032;28;19925;-64
2023/04/08 03:04:43;;;;;;;;;;;3.70;99.90;;;;;;5091526;28;19935;-63
2023/04/08 03:07:09;;;;;;;;;;;3.70;99.90;;;;;;5073387;28;20273;-64
2023/04/08 03:09:34;;;;;;;;;;;3.70;99.90;;;;;;5073892;28;19932;-65
2023/04/08 03:12:00;;;;;;;;;;;3.60;99.90;;;;;;5074293;28;19931;-64
2023/04/08 03:14:25;;;;;;;;;;;3.60;99.90;;;;;;5077634;28;19939;-63
2023/04/08 03:16:51;;;;;;;;;;;3.60;99.90;;;;;;5095588;28;19928;-64
2023/04/08 03:19:17;;;;;;;;;;;3.60;99.90;;;;;;5095237;28;19920;-64
2023/04/08 03:21:42;;;;;;;;;;;3.60;99.90;;;;;;5060396;28;19939;-64
2023/04/08 03:24:08;;;;;;;;;;;3.60;99.90;;;;;;5094992;28;19924;-65
2023/04/08 03:26:33;;;;;;;;;;;3.60;99.90;;;;;;5077528;28;19931;-64
2023/04/08 03:28:59;;;;;;;;;;;3.50;99.90;;;;;;5060521;28;19989;-67
2023/04/08 03:31:24;;;;;;;;;;;3.50;99.90;;;;;;5077564;28;19924;-64
2023/04/08 03:33:50;;;;;;;;;;;3.50;99.90;;;;;;5060845;28;20289;-64
2023/04/08 03:36:16;;;;;;;;;;;3.50;99.90;;;;;;5059969;28;20020;-65
2023/04/08 03:38:41;;;;;;;;;;;3.40;99.90;;;;;;5076927;28;20316;-64
2023/04/08 03:41:07;;;;;;;;;;;3.50;99.90;;;;;;5076577;28;19939;-65
2023/04/08 03:43:32;;;;;;;;;;;3.50;99.90;;;;;;5060710;28;19975;-64
2023/04/08 03:45:58;;;;;;;;;;;3.40;99.90;;;;;;5059885;28;19924;-64
2023/04/08 03:48:24;;;;;;;;;;;3.50;99.90;;;;;;5059509;28;19923;-64
2023/04/08 03:50:49;;;;;;;;;;;3.40;99.90;;;;;;5076735;28;20318;-64
2023/04/08 03:53:15;;;;;;;;;;;3.40;99.90;;;;;;5059806;28;19931;-64
2023/04/08 03:55:40;;;;;;;;;;;3.40;99.90;;;;;;5094809;28;20014;-66
2023/04/08 03:58:06;;;;;;;;;;;3.40;99.90;;;;;;5094328;28;19947;-65
2023/04/08 04:00:32;;;;;;;;;;;3.40;99.90;;;;;;5094712;28;19977;-65
2023/04/08 04:02:57;;;;;;;;;;;3.40;99.90;;;;;;5076628;28;20371;-64
2023/04/08 04:05:23;;;;;;;;;;;3.40;99.90;;;;;;5059895;28;20011;-64
2023/04/08 04:07:48;;;;;;;;;;;3.40;99.90;;;;;;5094669;28;20267;-64
2023/04/08 04:10:14;;;;;;;;;;;3.50;99.90;;;;;;5059751;28;19975;-64
2023/04/08 04:12:39;;;;;;;;;;;3.40;99.90;;;;;;5076824;28;19931;-64
2023/04/08 04:15:05;;;;;;;;;;;3.50;99.90;;;;;;5094061;28;19924;-68
2023/04/08 04:17:31;;;;;;;;;;;3.50;99.90;;;;;;5076497;28;19978;-63
2023/04/08 04:19:56;;;;;;;;;;;3.50;99.90;;;;;;5094500;28;19931;-63
2023/04/08 04:22:22;;;;;;;;;;;3.50;99.90;;;;;;5093957;28;19924;-64
2023/04/08 04:24:48;;;;;;;;;;;3.40;99.90;;;;;;5093429;28;19924;-64
2023/04/08 04:27:16;;;;;;;;;;;3.40;99.90;;;;;;5059154;28;20250;-63
2023/04/08 04:29:42;;;;;;;;;;;3.40;99.90;;;;;;5076481;28;19928;-64
2023/04/08 04:32:08;;;;;;;;;;;3.40;99.90;;;;;;5059321;28;19977;-65
2023/04/08 04:34:34;;;;;;;;;;;3.40;99.90;;;;;;5076224;28;19924;-63
2023/04/08 04:36:59;;;;;;;;;;;3.40;99.90;;;;;;5076369;28;19924;-64
2023/04/08 04:39:25;;;;;;;;;;;3.40;99.90;;;;;;5093352;28;20561;-63
2023/04/08 04:41:50;;;;;;;;;;;3.40;99.90;;;;;;5058963;28;19935;-66
2023/04/08 04:44:16;;;;;;;;;;;3.40;99.90;;;;;;5058918;28;20300;-64
2023/04/08 04:46:42;;;;;;;;;;;3.30;99.90;;;;;;5059253;28;19928;-65
2023/04/08 04:49:07;;;;;;;;;;;3.30;99.90;;;;;;5093706;28;20312;-67
2023/04/08 04:51:33;;;;;;;;;;;2.70;99.90;;;;;;5074810;28;19924;-63
2023/04/08 04:53:58;;;;;;;;;;;3.30;99.90;;;;;;5042469;28;19931;-64
2023/04/08 04:56:25;;;;;;;;;;;3.30;99.90;;;;;;5093251;28;19924;-63
2023/04/08 04:58:51;;;;;;;;;;;3.30;99.90;;;;;;5059123;28;20393;-65
2023/04/08 05:01:17;;;;;;;;;;;3.20;99.90;;;;;;5074985;28;19933;-63
2023/04/08 05:03:42;;;;;;;;;;;3.20;99.90;;;;;;5075585;28;19924;-64
2023/04/08 05:06:08;;;;;;;;;;;3.20;99.90;;;;;;5075755;28;20262;-63
2023/04/08 05:08:34;;;;;;;;;;;3.20;99.90;;;;;;5075113;28;20362;-64
2023/04/08 05:11:01;;;;;;;;;;;3.20;99.90;;;;;;5075209;28;19924;-64
2023/04/08 05:13:27;;;;;;;;;;;3.30;99.90;;;;;;5075089;28;19946;-64
2023/04/08 05:15:52;;;;;;;;;;;3.30;99.90;;;;;;5093179;28;20301;-65
2023/04/08 05:18:18;;;;;;;;;;;3.30;99.90;;;;;;5058235;28;19930;-65
2023/04/08 05:20:44;;;;;;;;;;;3.30;99.90;;;;;;5093172;28;19986;-64
2023/04/08 05:23:10;;;;;;;;;;;3.40;99.90;;;;;;5075088;28;19924;-64
2023/04/08 05:25:35;;;;;;;;;;;3.40;99.90;;;;;;5092918;28;19977;-64
2023/04/08 05:28:01;;;;;;;;;;;3.50;99.90;;;;;;5092951;28;20026;-64
2023/04/08 05:30:27;;;;;;;;;;;3.50;99.90;;;;;;5092700;28;19978;-64
2023/04/08 05:32:52;;;;;;;;;;;3.50;99.90;;;;;;5092942;28;20347;-63
2023/04/08 05:35:18;;;;;;;;;;;3.60;99.90;;;;;;5074626;28;19931;-64
2023/04/08 05:37:43;;;;;;;;;;;3.60;99.90;;;;;;5058372;28;19924;-65
2023/04/08 05:40:09;;;;;;;;;;;3.70;99.90;;;;;;5074167;28;20345;-64
2023/04/08 05:42:35;;;;;;;;;;;3.70;99.90;;;;;;5092521;28;19994;-64
2023/04/08 05:45:00;;;;;;;;;;;3.70;99.90;;;;;;5092480;28;19931;-65
2023/04/08 05:47:26;;;;;;;;;;;3.90;99.90;;;;;;5057683;28;19928;-64
2023/04/08 05:49:52;;;;;;;;;;;3.90;99.90;;;;;;5074785;28;19930;-65
2023/04/08 05:52:17;;;;;;;;;;;3.90;99.90;;;;;;5074504;28;19924;-66
2023/04/08 05:54:43;;;;;;;;;;;4.00;99.90;;;;;;5058000;28;19930;-64
2023/04/08 05:57:09;;;;;;;;;;;4.00;99.90;;;;;;5074393;28;19975;-64
2023/04/08 05:59:35;;;;;;;;;;;4.10;99.90;;;;;;5057584;28;20018;-64
2023/04/08 06:02:00;;;;;;;;;;;4.10;99.90;;;;;;5074398;28;19936;-62
2023/04/08 06:04:26;;;;;;;;;;;4.20;99.90;;;;;;5091894;28;19924;-64
2023/04/08 06:06:51;;;;;;;;;;;4.40;99.90;;;;;;5074457;28;19977;-65
2023/04/08 06:09:17;;;;;;;;;;;4.50;99.90;;;;;;5073872;28;20026;-65
2023/04/08 06:11:43;;;;;;;;;;;4.70;99.90;;;;;;5091962;28;19924;-65
2023/04/08 06:14:08;;;;;;;;;;;4.70;99.90;;;;;;5074050;28;19931;-64
2023/04/08 06:16:34;;;;;;;;;;;4.80;99.90;;;;;;5073532;28;19924;-64
2023/04/08 06:18:59;;;;;;;;;;;4.90;99.90;;;;;;5074185;28;20282;-64
2023/04/08 06:21:25;;;;;;;;;;;4.90;99.90;;;;;;5073674;28;19927;-64
2023/04/08 06:23:51;;;;;;;;;;;4.90;99.90;;;;;;5074377;28;19974;-63
2023/04/08 06:26:16;;;;;;;;;;;5.00;99.90;;;;;;5057383;28;19930;-64
2023/04/08 06:28:42;;;;;;;;;;;5.10;99.90;;;;;;5091502;28;19924;-64
2023/04/08 06:31:08;;;;;;;;;;;5.40;99.90;;;;;;5074098;28;19970;-64
2023/04/08 06:33:33;;;;;;;;;;;6.00;99.90;;;;;;5073411;28;20050;-64
2023/04/08 06:36:03;;;;;;;;;;;6.70;99.90;;;;;;5073930;28;19940;-64
2023/04/08 06:38:28;;;;;;;;;;;6.90;99.90;;;;;;5073708;28;19924;-64
2023/04/08 06:40:55;;;;;;;;;;;6.90;99.90;;;;;;5091865;28;19928;-66
2023/04/08 06:43:20;;;;;;;;;;;6.90;99.90;;;;;;5056837;28;19924;-65
2023/04/08 06:45:46;;;;;;;;;;;6.90;99.90;;;;;;5056916;28;20312;-64
2023/04/08 06:48:12;;;;;;;;;;;7.30;99.90;;;;;;5097668;28;20369;-64
2023/04/08 06:50:37;;;;;;;;;;;7.50;99.90;;;;;;5063701;28;19924;-65
2023/04/08 06:53:03;;;;;;;;;;;7.60;99.90;;;;;;5098662;28;19924;-65
2023/04/08 06:55:28;;;;;;;;;;;8.20;99.90;;;;;;5098214;28;20289;-64
2023/04/08 06:57:54;;;;;;;;;;;8.60;99.90;;;;;;5098337;28;19924;-64
2023/04/08 07:00:20;;;;;;;;;;;9.00;99.90;;;;;;5080222;28;19969;-64
2023/04/08 07:02:45;;;;;;;;;;;9.50;99.90;;;;;;5098116;28;19995;-66
2023/04/08 07:05:11;;;;;;;;;;;9.60;99.90;;;;;;5080306;28;19935;-64
2023/04/08 07:07:37;;;;;;;;;;;9.60;99.90;;;;;;5080084;28;20025;-66
2023/04/08 07:10:02;;;;;;;;;;;9.60;99.90;;;;;;5080325;28;19978;-65
2023/04/08 07:12:28;;;;;;;;;;;9.30;99.90;;;;;;5080324;28;19931;-71
2023/04/08 07:14:54;;;;;;;;;;;8.90;99.90;;;;;;5063960;28;19931;-65
2023/04/08 07:17:19;;;;;;;;;;;8.60;99.90;;;;;;5080193;28;19931;-65
2023/04/08 07:19:45;;;;;;;;;;;8.40;99.90;;;;;;5080139;28;19928;-65
2023/04/08 07:22:10;;;;;;;;;;;8.20;99.90;;;;;;5098355;28;20449;-67
2023/04/08 07:24:36;;;;;;;;;;;8.00;99.90;;;;;;5079725;28;19931;-66
2023/04/08 07:27:03;;;;;;;;;;;7.90;99.90;;;;;;5062927;28;20207;-65
2023/04/08 07:29:29;;;;;;;;;;;7.80;99.90;;;;;;5079660;28;19924;-67
2023/04/08 07:31:54;;;;;;;;;;;7.80;99.90;;;;;;5080376;28;19931;-65
2023/04/08 07:34:20;;;;;;;;;;;7.70;99.90;;;;;;5098516;28;20450;-65
2023/04/08 07:36:46;;;;;;;;;;;7.60;99.90;;;;;;5079708;28;19924;-66
2023/04/08 07:39:11;;;;;;;;;;;7.50;99.90;;;;;;5063255;28;19924;-65
2023/04/08 07:41:37;;;;;;;;;;;7.40;99.90;;;;;;5097814;28;19946;-66
2023/04/08 07:44:02;;;;;;;;;;;7.30;99.90;;;;;;5063700;28;20369;-65
2023/04/08 07:46:28;;;;;;;;;;;7.30;99.90;;;;;;5098056;28;20022;-66
2023/04/08 07:48:54;;;;;;;;;;;7.20;99.90;;;;;;5062722;28;19924;-66
2023/04/08 07:51:19;;;;;;;;;;;7.10;99.90;;;;;;5079863;28;19977;-66
2023/04/08 07:53:45;;;;;;;;;;;7.10;99.90;;;;;;5063153;28;19967;-66
2023/04/08 07:56:11;;;;;;;;;;;7.00;99.90;;;;;;5063230;28;19928;-65
2023/04/08 07:58:37;;;;;;;;;;;7.10;99.90;;;;;;5059914;28;19931;-65
2023/04/08 08:01:02;;;;;;;;;;;7.00;99.90;;;;;;5094740;28;19924;-66
2023/04/08 08:03:28;;;;;;;;;;;7.00;99.90;;;;;;5094693;28;20330;-65
2023/04/08 08:05:54;;;;;;;;;;;7.00;99.90;;;;;;5094173;28;19924;-66
2023/04/08 08:08:19;;;;;;;;;;;7.00;99.90;;;;;;5059616;28;19924;-65
2023/04/08 08:10:45;;;;;;;;;;;7.00;99.90;;;;;;5075617;28;20039;-66
2023/04/08 08:13:13;;;;;;;;;;;6.90;99.90;;;;;;5076756;28;19935;-65
2023/04/08 08:15:39;;;;;;;;;;;6.90;99.90;;;;;;5043102;28;20026;-66
2023/04/08 08:18:05;;;;;;;;;;;6.90;99.90;;;;;;5094480;28;19967;-65
2023/04/08 08:20:30;;;;;;;;;;;7.00;99.90;;;;;;5093877;28;19928;-64
2023/04/08 08:22:56;;;;;;;;;;;7.00;99.90;;;;;;5076020;28;19928;-65
2023/04/08 08:25:22;;;;;;;;;;;7.00;99.90;;;;;;5076198;28;20247;-67
2023/04/08 08:27:47;;;;;;;;;;;7.00;99.90;;;;;;5058854;28;19935;-65
2023/04/08 08:30:13;;;;;;;;;;;7.10;99.90;;;;;;5094159;28;19928;-65
2023/04/08 08:32:39;;;;;;;;;;;7.10;99.90;;;;;;5093583;28;19928;-68
2023/04/08 08:35:05;;;;;;;;;;;7.10;99.90;;;;;;5093756;28;19924;-66
2023/04/08 08:37:30;;;;;;;;;;;7.10;99.90;;;;;;5076092;28;20066;-66
2023/04/08 08:39:56;;;;;;;;;;;7.10;99.90;;;;;;5058243;28;19924;-65
2023/04/08 08:42:22;;;;;;;;;;;7.10;99.90;;;;;;5058852;28;20246;-66
2023/04/08 08:44:48;;;;;;;;;;;7.00;99.90;;;;;;5058958;28;19924;-65
2023/04/08 08:47:14;;;;;;;;;;;7.00;99.90;;;;;;5075318;28;19932;-66
2023/04/08 08:49:40;;;;;;;;;;;7.10;99.90;;;;;;5075740;28;19928;-69
2023/04/08 08:52:06;;;;;;;;;;;7.10;99.90;;;;;;5058220;28;19978;-67
2023/04/08 08:54:31;;;;;;;;;;;7.10;99.90;;;;;;5075795;28;19992;-66
2023/04/08 08:56:57;;;;;;;;;;;7.10;99.90;;;;;;5075397;28;19972;-66
2023/04/08 08:59:23;;;;;;;;;;;7.10;99.90;;;;;;5075544;28;19931;-66
2023/04/08 09:01:48;;;;;;;;;;;7.20;99.90;;;;;;5074856;28;19924;-67
2023/04/08 09:04:19;;;;;;;;;;;7.20;99.90;;;;;;5075629;28;19981;-66
2023/04/08 09:07:03;;;;;;;;;;;7.20;99.90;;;;;;5075367;28;19954;-66
2023/04/08 09:09:46;;;;;;;;;;;7.20;99.90;;;;;;5075258;28;19931;-65
2023/04/08 09:12:12;;;;;;;;;;;7.20;99.90;;;;;;5075396;28;19978;-66
2023/04/08 09:14:38;;;;;;;;;;;7.20;99.90;;;;;;5075074;28;20022;-65
2023/04/08 09:17:04;;;;;;;;;;;7.20;99.90;;;;;;5058419;28;19978;-65
2023/04/08 09:19:29;;;;;;;;;;;7.20;99.90;;;;;;5041938;28;19924;-66
2023/04/08 09:22:08;;;;;;;;;;;7.20;99.90;;;;;;5057710;28;19931;-66
2023/04/08 09:24:35;;;;;;;;;;;7.70;99.90;;;;;;5093217;28;20282;-66
2023/04/08 09:27:01;;;;;;;;;;;7.30;99.90;;;;;;5058309;28;19928;-66
2023/04/08 09:29:27;;;;;;;;;;;7.40;99.90;;;;;;5092893;28;19951;-66
2023/04/08 09:32:02;;;;;;;;;;;7.50;99.90;;;;;;5074669;28;20289;-67
2023/04/08 09:34:31;;;;;;;;;;;7.50;99.90;;;;;;5075079;28;20392;-67
2023/04/08 09:36:56;;;;;;;;;;;7.60;99.90;;;;;;5058017;28;19931;-66
2023/04/08 09:39:22;;;;;;;;;;;7.60;99.90;;;;;;5092638;28;20315;-66
2023/04/08 09:41:49;;;;;;;;;;;7.60;99.90;;;;;;5074313;28;20015;-69
2023/04/08 09:44:19;;;;;;;;;;;7.80;99.90;;;;;;5074760;28;19970;-67
2023/04/08 09:46:48;;;;;;;;;;;7.90;99.90;;;;;;5074169;28;20404;-66
2023/04/08 09:49:22;;;;;;;;;;;8.00;99.90;;;;;;5074562;28;19925;-65
2023/04/08 09:52:03;;;;;;;;;;;8.00;99.90;;;;;;5074786;28;20351;-69
2023/04/08 09:54:48;;;;;;;;;;;8.00;99.90;;;;;;5058182;28;19924;-67
2023/04/08 09:57:21;;;;;;;;;;;8.10;99.90;;;;;;5056574;28;19975;-66
2023/04/08 10:00:16;;;;;;;;;;;8.10;99.90;;;;;;5074528;28;20285;-66
2023/04/08 10:03:08;;;;;;;;;;;8.30;99.90;;;;;;5052482;28;20009;-66
2023/04/08 10:05:39;;;;;;;;;;;9.00;99.90;;;;;;5069540;28;19924;-66
2023/04/08 10:08:05;;;;;;;;;;;8.40;99.90;;;;;;5092056;28;19924;-65
2023/04/08 10:10:32;;;;;;;;;;;8.40;99.90;;;;;;5057762;28;19974;-68
2023/04/08 10:12:58;;;;;;;;;;;8.50;99.90;;;;;;5074044;28;20278;-66
2023/04/08 10:15:24;;;;;;;;;;;8.50;99.90;;;;;;5057490;28;19924;-66
2023/04/08 10:17:50;;;;;;;;;;;8.50;99.90;;;;;;5092226;28;19924;-66
2023/04/08 10:20:39;;;;;;;;;;;8.50;99.90;;;;;;5073951;28;19924;-66
2023/04/08 10:23:09;;;;;;;;;;;8.60;99.90;;;;;;5060069;28;19924;-65
2023/04/08 10:25:36;;;;;;;;;;;8.60;99.90;;;;;;5057614;28;19928;-67
2023/04/08 10:28:22;;;;;;;;;;;8.60;99.90;;;;;;5057217;28;19974;-66
2023/04/08 10:30:51;;;;;;;;;;;8.50;99.90;;;;;;5073544;28;20270;-66
2023/04/08 10:33:22;;;;;;;;;;;8.50;99.90;;;;;;5073818;28;19944;-65
2023/04/08 10:35:48;;;;;;;;;;;8.60;99.90;;;;;;5091883;28;19924;-66
2023/04/08 10:38:15;;;;;;;;;;;8.60;99.90;;;;;;5073872;28;20002;-67
2023/04/08 10:40:41;;;;;;;;;;;8.60;99.90;;;;;;5056596;28;20026;-66
2023/04/08 10:43:11;;;;;;;;;;;8.60;99.90;;;;;;5056676;28;19973;-66
2023/04/08 10:45:37;;;;;;;;;;;8.70;99.90;;;;;;5074078;28;20018;-67
2023/04/08 10:48:13;;;;;;;;;;;8.80;99.90;;;;;;5091059;28;19931;-66
2023/04/08 10:50:39;;;;;;;;;;;8.80;99.90;;;;;;5073326;28;19935;-66
2023/04/08 10:53:05;;;;;;;;;;;8.80;99.90;;;;;;5091073;28;20065;-66
2023/04/08 10:55:31;;;;;;;;;;;8.80;99.90;;;;;;5073919;28;20084;-66
2023/04/08 10:58:07;;;;;;;;;;;8.80;99.90;;;;;;5057437;28;19971;-66
2023/04/08 11:00:37;;;;;;;;;;;8.80;99.90;;;;;;5073778;28;19924;-67
2023/04/08 11:03:07;;;;;;;;;;;8.90;99.90;;;;;;5091494;28;20061;-66
2023/04/08 11:05:33;;;;;;;;;;;8.90;99.90;;;;;;5073781;28;19924;-65
2023/04/08 11:07:59;;;;;;;;;;;9.00;99.90;;;;;;5056695;28;20376;-68
2023/04/08 11:10:25;;;;;;;;;;;9.00;99.90;;;;;;5091136;28;19978;-66
2023/04/08 11:12:52;;;;;;;;;;;9.00;99.90;;;;;;5073851;28;20022;-65
2023/04/08 11:15:18;;;;;;;;;;;9.00;99.90;;;;;;5056664;28;20035;-65
2023/04/08 11:17:44;;;;;;;;;;;9.10;99.90;;;;;;5073270;28;19963;-65
2023/04/08 11:20:09;;;;;;;;;;;9.10;99.90;;;;;;5039866;28;19924;-65
2023/04/08 11:22:35;;;;;;;;;;;9.10;99.90;;;;;;5073821;28;19924;-66
2023/04/08 11:25:01;;;;;;;;;;;9.20;99.90;;;;;;5091561;28;20289;-69
2023/04/08 11:27:27;;;;;;;;;;;9.20;99.90;;;;;;5073595;28;19924;-66
2023/04/08 11:29:55;;;;;;;;;;;9.20;99.90;;;;;;5089733;28;19924;-66
2023/04/08 11:32:22;;;;;;;;;;;9.20;99.90;;;;;;5072995;28;19924;-66
2023/04/08 11:34:48;;;;;;;;;;;9.30;99.90;;;;;;5044346;28;19973;-66
2023/04/08 11:37:13;;;;;;;;;;;9.30;99.90;;;;;;5076790;28;19925;-66
2023/04/08 11:39:41;;;;;;;;;;;9.30;99.90;;;;;;5076438;28;19931;-66
2023/04/08 11:42:07;;;;;;;;;;;9.30;99.90;;;;;;5076490;28;20016;-65
2023/04/08 11:44:32;;;;;;;;;;;9.40;99.90;;;;;;5095168;28;20006;-67
2023/04/08 11:46:58;;;;;;;;;;;9.40;99.90;;;;;;5043696;28;19931;-66
2023/04/08 11:49:24;;;;;;;;;;;9.50;99.90;;;;;;5059515;28;19924;-65
2023/04/08 11:51:54;;;;;;;;;;;9.50;99.90;;;;;;5043876;28;20024;-65
2023/04/08 11:54:27;;;;;;;;;;;9.50;99.90;;;;;;5076732;28;20006;-66
2023/04/08 11:56:53;;;;;;;;;;;9.50;99.90;;;;;;5076639;28;19946;-65
2023/04/08 11:59:19;;;;;;;;;;;9.40;99.90;;;;;;5059612;28;20429;-66
2023/04/08 12:01:45;;;;;;;;;;;9.50;99.90;;;;;;5059418;28;19939;-66
2023/04/08 12:04:10;;;;;;;;;;;9.50;99.90;;;;;;5059230;28;20404;-66
2023/04/08 12:06:36;;;;;;;;;;;9.40;99.90;;;;;;5076716;28;19924;-66
2023/04/08 12:09:02;;;;;;;;;;;9.40;99.90;;;;;;5076613;28;20344;-65
2023/04/08 12:11:28;;;;;;;;;;;9.40;99.90;;;;;;5074197;28;19930;-66
2023/04/08 12:13:53;;;;;;;;;;;9.40;99.90;;;;;;5059492;28;19924;-66
2023/04/08 12:16:19;;;;;;;;;;;9.50;99.90;;;;;;5075721;28;19928;-65
2023/04/08 12:18:45;;;;;;;;;;;9.50;99.90;;;;;;5058795;28;20364;-66
2023/04/08 12:21:11;;;;;;;;;;;9.50;99.90;;;;;;5075583;28;19978;-66
2023/04/08 12:23:37;;;;;;;;;;;9.60;99.90;;;;;;5075939;28;20369;-65
2023/04/08 12:26:03;;;;;;;;;;;9.60;99.90;;;;;;5059233;28;19978;-65
2023/04/08 12:28:29;;;;;;;;;;;9.60;99.90;;;;;;5076094;28;19978;-66
2023/04/08 12:30:55;;;;;;;;;;;9.60;99.90;;;;;;5076146;28;19971;-64
2023/04/08 12:33:20;;;;;;;;;;;9.70;99.90;;;;;;5059297;28;19931;-66
2023/04/08 12:35:46;;;;;;;;;;;9.70;99.90;;;;;;5094161;28;19924;-65
2023/04/08 12:38:11;;;;;;;;;;;9.80;99.90;;;;;;5075906;28;19975;-70
2023/04/08 12:40:37;;;;;;;;;;;9.80;99.90;;;;;;5093131;28;19931;-66
2023/04/08 12:43:03;;;;;;;;;;;9.90;99.90;;;;;;5075430;28;19924;-66
2023/04/08 12:45:28;;;;;;;;;;;9.90;99.90;;;;;;5074179;28;19998;-67
2023/04/08 12:47:54;;;;;;;;;;;9.90;99.90;;;;;;5074439;28;20402;-68
2023/04/08 12:50:19;;;;;;;;;;;10.00;99.90;;;;;;5092744;28;19931;-65
2023/04/08 12:52:45;;;;;;;;;;;10.00;99.90;;;;;;5075772;28;19924;-65
2023/04/08 12:55:10;;;;;;;;;;;10.10;99.90;;;;;;5058991;28;20377;-66
2023/04/08 12:57:36;;;;;;;;;;;10.20;99.90;;;;;;5075532;28;19932;-66
2023/04/08 13:00:03;;;;;;;;;;;10.20;99.90;;;;;;5075715;28;19932;-66
2023/04/08 13:02:28;;;;;;;;;;;10.20;99.90;;;;;;5075099;28;19924;-65
2023/04/08 13:04:54;;;;;;;;;;;10.30;99.90;;;;;;5075814;28;19946;-66
2023/04/08 13:07:20;;;;;;;;;;;10.30;99.90;;;;;;5075322;28;20381;-65
2023/04/08 13:09:45;;;;;;;;;;;10.40;99.90;;;;;;5075697;28;19958;-65
2023/04/08 13:12:11;;;;;;;;;;;10.50;99.90;;;;;;5093020;28;19928;-65
2023/04/08 13:14:37;;;;;;;;;;;10.50;99.90;;;;;;5075040;28;19949;-65
2023/04/08 13:17:03;;;;;;;;;;;10.60;99.90;;;;;;5075177;28;19947;-65
2023/04/08 13:19:28;;;;;;;;;;;10.70;99.90;;;;;;5093108;28;19924;-64
2023/04/08 13:21:54;;;;;;;;;;;10.70;99.90;;;;;;5075059;28;19944;-65
2023/04/08 13:24:19;;;;;;;;;;;10.70;99.90;;;;;;5074795;28;20321;-64
2023/04/08 13:26:45;;;;;;;;;;;10.70;99.90;;;;;;5058434;28;20019;-64
2023/04/08 13:29:10;;;;;;;;;;;10.80;99.90;;;;;;5092925;28;20387;-65
2023/04/08 13:31:36;;;;;;;;;;;10.80;99.90;;;;;;5074856;28;19924;-65
2023/04/08 13:34:02;;;;;;;;;;;10.90;99.90;;;;;;5074905;28;20408;-65
2023/04/08 13:36:27;;;;;;;;;;;10.90;99.90;;;;;;5074425;28;19924;-65
2023/04/08 13:38:53;;;;;;;;;;;11.00;99.90;;;;;;5075016;28;19931;-67
2023/04/08 13:41:22;;;;;;;;;;;11.00;99.90;;;;;;5058163;28;20265;-68
2023/04/08 13:43:47;;;;;;;;;;;11.10;99.90;;;;;;5074435;28;19936;-66
2023/04/08 13:46:13;;;;;;;;;;;11.20;99.90;;;;;;5058327;28;19931;-65
2023/04/08 13:48:39;;;;;;;;;;;11.30;99.90;;;;;;5092266;28;20015;-66
2023/04/08 13:51:05;;;;;;;;;;;11.30;99.90;;;;;;5074472;28;19924;-65
2023/04/08 13:53:30;;;;;;;;;;;11.30;99.90;;;;;;5074344;28;19935;-66
2023/04/08 13:55:57;;;;;;;;;;;11.30;99.90;;;;;;5073854;28;20262;-64
2023/04/08 13:58:23;;;;;;;;;;;11.40;99.90;;;;;;5057403;28;19924;-65
2023/04/08 14:00:50;;;;;;;;;;;11.50;99.90;;;;;;5092466;28;19924;-65
2023/04/08 14:03:16;;;;;;;;;;;11.50;99.90;;;;;;5058062;28;19975;-65
2023/04/08 14:05:41;;;;;;;;;;;11.60;99.90;;;;;;5074012;28;19963;-65
2023/04/08 14:08:08;;;;;;;;;;;11.60;99.90;;;;;;5074094;28;20010;-66
2023/04/08 14:10:33;;;;;;;;;;;11.60;99.90;;;;;;5056517;28;19924;-65
2023/04/08 14:12:59;;;;;;;;;;;11.60;99.90;;;;;;5074163;28;19924;-66
2023/04/08 14:15:25;;;;;;;;;;;11.20;99.90;;;;;;5091441;28;19931;-67
2023/04/08 14:17:50;;;;;;;;;;;11.50;99.90;;;;;;5074097;28;19928;-65
2023/04/08 14:20:16;;;;;;;;;;;11.60;99.90;;;;;;5091795;28;19924;-67
2023/04/08 14:22:41;;;;;;;;;;;11.60;99.90;;;;;;5073543;28;19999;-66
2023/04/08 14:25:07;;;;;;;;;;;11.60;99.90;;;;;;5057266;28;19975;-66